Imperial Eagle — V7TK5 — position and weather

sailwx.info

Track history (hours):
 
Tides and Currents Weather Stations Pressure Air Temp Water Temp Dewpoint Dewpoint Depression Visibility Wind Speed Wind Dir Waves Ship Positions

Imperial Eagle

Last reported at 2014-Sep-10 21:17 UTC. Time now 2014-Oct-21 13:36 UTC.
Position N 01°15' E 104°06'.
Warning: this ship's position is 40 days out of date.

Length 190 m; draft 12.5 m.

Type: Cargo ship. MMSI: 256759020.

Date/timePositionNaut miles runAvg speedWind from/ knotsBaromVisibWave heightAir tempDewpointWater temp
2014-Sep-10 21:17N 01°15' E 104°06'1013.8
2014-Sep-10 20:34N 01°13' E 103°56'16 5.1
2014-Sep-10 17:30N 01°11' E 103°40'1 0.1
2014-Sep-10 12:14N 01°12' E 103°41'1 0.0
2014-Sep-09 06:33N 01°12' E 103°42'  
2014-Sep-06 00:18N 01°10' E 103°46'5 6.3
2014-Sep-05 23:33N 01°13' E 103°50'0 0.1
2014-Sep-05 22:29N 01°13' E 103°50'0 0.0
2014-Sep-05 21:32N 01°13' E 103°50'0 0.0
2014-Sep-05 20:17N 01°13' E 103°50'0 0.0
2014-Sep-05 19:29N 01°13' E 103°50'0 0.0
2014-Sep-05 18:29N 01°13' E 103°50'0 0.0
2014-Sep-05 17:26N 01°13' E 103°50'0 0.0
2014-Sep-05 16:23N 01°13' E 103°50'0 0.1
2014-Sep-05 15:26N 01°13' E 103°50'0 0.0
2014-Sep-05 14:32N 01°13' E 103°50'0 0.0
2014-Sep-05 13:11N 01°13' E 103°50'0 0.1
2014-Sep-05 12:05N 01°13' E 103°50'0 0.1
2014-Sep-05 11:32N 01°13' E 103°50'0 0.1
2014-Sep-05 10:32N 01°13' E 103°49'0 0.1
2014-Sep-05 09:32N 01°13' E 103°49'0 0.0
2014-Sep-05 08:29N 01°13' E 103°49'0 0.1
2014-Sep-05 07:33N 01°13' E 103°49'4 4.4
2014-Sep-05 06:33N 01°13' E 103°54'8 8.4
2014-Sep-05 05:33N 01°16' E 104°02'  
Track history (hours):
 
Tides and Currents Weather Stations Pressure Air Temp Water Temp Dewpoint Dewpoint Depression Visibility Wind Speed Wind Dir Waves Ship Positions

Imperial Eagle

Last reported at 2014-Sep-10 21:17 UTC. Time now 2014-Oct-21 13:36 UTC.
Position N 01°15' E 104°06'.
Warning: this ship's position is 40 days out of date.

Length 190 m; draft 12.5 m.

Type: Cargo ship. MMSI: 256759020.

Date/timePositionNaut miles runAvg speedWind from/ knotsBaromVisibWave heightAir tempDewpointWater temp
2014-Sep-10 21:17N 01°15' E 104°06'1013.8
2014-Sep-10 20:34N 01°13' E 103°56'16 5.1
2014-Sep-10 17:30N 01°11' E 103°40'1 0.1
2014-Sep-10 12:14N 01°12' E 103°41'1 0.0
2014-Sep-09 06:33N 01°12' E 103°42'  
2014-Sep-06 00:18N 01°10' E 103°46'5 6.3
2014-Sep-05 23:33N 01°13' E 103°50'0 0.1
2014-Sep-05 22:29N 01°13' E 103°50'0 0.0
2014-Sep-05 21:32N 01°13' E 103°50'0 0.0
2014-Sep-05 20:17N 01°13' E 103°50'0 0.0
2014-Sep-05 19:29N 01°13' E 103°50'0 0.0
2014-Sep-05 18:29N 01°13' E 103°50'0 0.0
2014-Sep-05 17:26N 01°13' E 103°50'0 0.0
2014-Sep-05 16:23N 01°13' E 103°50'0 0.1
2014-Sep-05 15:26N 01°13' E 103°50'0 0.0
2014-Sep-05 14:32N 01°13' E 103°50'0 0.0
2014-Sep-05 13:11N 01°13' E 103°50'0 0.1
2014-Sep-05 12:05N 01°13' E 103°50'0 0.1
2014-Sep-05 11:32N 01°13' E 103°50'0 0.1
2014-Sep-05 10:32N 01°13' E 103°49'0 0.1
2014-Sep-05 09:32N 01°13' E 103°49'0 0.0
2014-Sep-05 08:29N 01°13' E 103°49'0 0.1
2014-Sep-05 07:33N 01°13' E 103°49'4 4.4
2014-Sep-05 06:33N 01°13' E 103°54'8 8.4
2014-Sep-05 05:33N 01°16' E 104°02'  

Dump ship's entire track history